sensor_id;sensor_type;location;lat;lon;timestamp;pressure;altitude;pressure_sealevel;temperature;humidity
60820;BME280;46641;48.904;9.126;2022-12-18T00:00:28;99742.59;;;3.97;65.85
60820;BME280;46641;48.904;9.126;2022-12-18T00:05:18;99743.47;;;3.96;65.50
60820;BME280;46641;48.904;9.126;2022-12-18T00:10:09;99749.59;;;3.95;66.02
60820;BME280;46641;48.904;9.126;2022-12-18T00:14:59;99752.25;;;3.93;66.08
60820;BME280;46641;48.904;9.126;2022-12-18T00:19:49;99739.31;;;3.93;66.21
60820;BME280;46641;48.904;9.126;2022-12-18T00:24:40;99741.19;;;3.90;66.12
60820;BME280;46641;48.904;9.126;2022-12-18T00:29:30;99754.31;;;3.87;66.25
60820;BME280;46641;48.904;9.126;2022-12-18T00:34:20;99758.56;;;3.88;65.66
60820;BME280;46641;48.904;9.126;2022-12-18T00:39:11;99751.78;;;3.85;65.75
60820;BME280;46641;48.904;9.126;2022-12-18T00:44:02;99759.56;;;3.85;65.55
60820;BME280;46641;48.904;9.126;2022-12-18T00:48:53;99750.16;;;3.83;65.57
60820;BME280;46641;48.904;9.126;2022-12-18T00:53:43;99747.66;;;3.81;65.53
60820;BME280;46641;48.904;9.126;2022-12-18T00:58:36;99746.84;;;3.81;65.36
60820;BME280;46641;48.904;9.126;2022-12-18T01:03:27;99758.03;;;3.81;66.58
60820;BME280;46641;48.904;9.126;2022-12-18T01:08:17;99745.91;;;3.82;65.39
60820;BME280;46641;48.904;9.126;2022-12-18T01:13:08;99743.31;;;3.82;65.25
60820;BME280;46641;48.904;9.126;2022-12-18T01:17:58;99760.69;;;3.80;65.33
60820;BME280;46641;48.904;9.126;2022-12-18T01:22:48;99753.97;;;3.75;65.75
60820;BME280;46641;48.904;9.126;2022-12-18T01:27:39;99767.00;;;3.74;66.01
60820;BME280;46641;48.904;9.126;2022-12-18T01:32:30;99752.38;;;3.73;65.44
60820;BME280;46641;48.904;9.126;2022-12-18T01:37:20;99762.81;;;3.71;65.45
60820;BME280;46641;48.904;9.126;2022-12-18T01:42:12;99762.88;;;3.70;65.33
60820;BME280;46641;48.904;9.126;2022-12-18T01:47:03;99771.66;;;3.67;65.61
60820;BME280;46641;48.904;9.126;2022-12-18T01:51:53;99772.53;;;3.66;65.51
60820;BME280;46641;48.904;9.126;2022-12-18T01:56:44;99745.91;;;3.64;66.01
60820;BME280;46641;48.904;9.126;2022-12-18T02:01:34;99756.25;;;3.64;65.35
60820;BME280;46641;48.904;9.126;2022-12-18T02:06:39;99747.72;;;3.62;64.87
60820;BME280;46641;48.904;9.126;2022-12-18T02:11:44;99747.81;;;3.61;65.35
60820;BME280;46641;48.904;9.126;2022-12-18T02:16:51;99758.16;;;3.61;64.94
60820;BME280;46641;48.904;9.126;2022-12-18T02:21:51;99775.50;;;3.59;65.02
60820;BME280;46641;48.904;9.126;2022-12-18T02:26:51;99764.31;;;3.58;65.04
60820;BME280;46641;48.904;9.126;2022-12-18T02:31:48;99759.13;;;3.58;65.08
60820;BME280;46641;48.904;9.126;2022-12-18T02:36:42;99757.44;;;3.57;64.76
60820;BME280;46641;48.904;9.126;2022-12-18T02:41:34;99772.22;;;3.55;65.25
60820;BME280;46641;48.904;9.126;2022-12-18T02:46:45;99781.72;;;3.55;65.62
60820;BME280;46641;48.904;9.126;2022-12-18T02:51:48;99789.56;;;3.53;65.48
60820;BME280;46641;48.904;9.126;2022-12-18T02:56:46;99783.53;;;3.53;65.26
60820;BME280;46641;48.904;9.126;2022-12-18T03:01:54;99791.44;;;3.49;65.40
60820;BME280;46641;48.904;9.126;2022-12-18T03:06:49;99779.34;;;3.50;65.02
60820;BME280;46641;48.904;9.126;2022-12-18T03:11:45;99782.84;;;3.49;65.42
60820;BME280;46641;48.904;9.126;2022-12-18T03:17:00;99789.84;;;3.47;65.50
60820;BME280;46641;48.904;9.126;2022-12-18T03:21:55;99790.66;;;3.47;65.18
60820;BME280;46641;48.904;9.126;2022-12-18T03:26:53;99792.41;;;3.47;65.29
60820;BME280;46641;48.904;9.126;2022-12-18T03:31:49;99791.53;;;3.48;64.81
60820;BME280;46641;48.904;9.126;2022-12-18T03:36:41;99798.38;;;3.49;65.00
60820;BME280;46641;48.904;9.126;2022-12-18T03:41:36;99788.06;;;3.47;64.92
60820;BME280;46641;48.904;9.126;2022-12-18T03:51:49;99787.38;;;3.44;65.41
60820;BME280;46641;48.904;9.126;2022-12-18T03:56:45;99794.25;;;3.45;65.14
60820;BME280;46641;48.904;9.126;2022-12-18T04:01:40;99783.97;;;3.43;65.45
60820;BME280;46641;48.904;9.126;2022-12-18T04:06:37;99782.34;;;3.41;65.17
60820;BME280;46641;48.904;9.126;2022-12-18T04:11:27;99796.16;;;3.41;65.74
60820;BME280;46641;48.904;9.126;2022-12-18T04:16:18;99781.47;;;3.42;65.67
60820;BME280;46641;48.904;9.126;2022-12-18T04:21:09;99787.47;;;3.42;64.98
60820;BME280;46641;48.904;9.126;2022-12-18T04:26:00;99796.16;;;3.41;64.81
60820;BME280;46641;48.904;9.126;2022-12-18T04:30:50;99790.97;;;3.41;65.43
60820;BME280;46641;48.904;9.126;2022-12-18T04:35:41;99798.75;;;3.41;65.07
60820;BME280;46641;48.904;9.126;2022-12-18T04:40:35;99792.69;;;3.41;65.28
60820;BME280;46641;48.904;9.126;2022-12-18T04:45:26;99782.44;;;3.39;65.75
60820;BME280;46641;48.904;9.126;2022-12-18T04:50:16;99791.88;;;3.40;65.39
60820;BME280;46641;48.904;9.126;2022-12-18T04:55:07;99786.78;;;3.39;65.20
60820;BME280;46641;48.904;9.126;2022-12-18T04:59:57;99788.44;;;3.40;65.23
60820;BME280;46641;48.904;9.126;2022-12-18T05:04:47;99785.84;;;3.40;65.57
60820;BME280;46641;48.904;9.126;2022-12-18T05:09:37;99782.50;;;3.38;65.50
60820;BME280;46641;48.904;9.126;2022-12-18T05:14:28;99780.03;;;3.35;65.31
60820;BME280;46641;48.904;9.126;2022-12-18T05:19:19;99791.94;;;3.39;65.33
60820;BME280;46641;48.904;9.126;2022-12-18T05:24:09;99804.09;;;3.37;65.63
60820;BME280;46641;48.904;9.126;2022-12-18T05:28:59;99804.19;;;3.35;64.53
60820;BME280;46641;48.904;9.126;2022-12-18T05:33:50;99804.19;;;3.35;65.19
60820;BME280;46641;48.904;9.126;2022-12-18T05:38:40;99817.03;;;3.37;65.11
60820;BME280;46641;48.904;9.126;2022-12-18T05:43:34;99823.13;;;3.36;65.19
60820;BME280;46641;48.904;9.126;2022-12-18T05:48:26;99812.78;;;3.36;65.34
60820;BME280;46641;48.904;9.126;2022-12-18T05:53:18;99798.16;;;3.35;65.28
60820;BME280;46641;48.904;9.126;2022-12-18T05:58:10;99811.25;;;3.32;65.23
60820;BME280;46641;48.904;9.126;2022-12-18T06:03:02;99802.50;;;3.34;65.16
60820;BME280;46641;48.904;9.126;2022-12-18T06:07:53;99811.25;;;3.32;65.48
60820;BME280;46641;48.904;9.126;2022-12-18T06:12:44;99814.59;;;3.34;65.30
60820;BME280;46641;48.904;9.126;2022-12-18T06:17:34;99806.09;;;3.32;64.83
60820;BME280;46641;48.904;9.126;2022-12-18T06:22:25;99808.66;;;3.32;65.75
60820;BME280;46641;48.904;9.126;2022-12-18T06:27:16;99811.25;;;3.32;64.99
60820;BME280;46641;48.904;9.126;2022-12-18T06:32:06;99825.09;;;3.31;65.12
60820;BME280;46641;48.904;9.126;2022-12-18T06:36:57;99833.75;;;3.30;65.05
60820;BME280;46641;48.904;9.126;2022-12-18T06:41:47;99839.78;;;3.30;64.54
60820;BME280;46641;48.904;9.126;2022-12-18T06:46:37;99825.22;;;3.27;64.51
60820;BME280;46641;48.904;9.126;2022-12-18T06:51:28;99828.63;;;3.28;64.82
60820;BME280;46641;48.904;9.126;2022-12-18T06:56:18;99827.81;;;3.27;65.40
60820;BME280;46641;48.904;9.126;2022-12-18T07:01:10;99836.41;;;3.28;65.04
60820;BME280;46641;48.904;9.126;2022-12-18T07:06:01;99845.16;;;3.25;64.82
60820;BME280;46641;48.904;9.126;2022-12-18T07:10:52;99852.94;;;3.25;65.08
60820;BME280;46641;48.904;9.126;2022-12-18T07:15:44;99858.09;;;3.25;64.87
60820;BME280;46641;48.904;9.126;2022-12-18T07:20:34;99855.50;;;3.25;65.46
60820;BME280;46641;48.904;9.126;2022-12-18T07:25:24;99858.16;;;3.24;64.92
60820;BME280;46641;48.904;9.126;2022-12-18T07:30:14;99876.25;;;3.24;65.79
60820;BME280;46641;48.904;9.126;2022-12-18T07:35:05;99884.03;;;3.24;65.37
60820;BME280;46641;48.904;9.126;2022-12-18T07:39:55;99877.94;;;3.25;65.27
60820;BME280;46641;48.904;9.126;2022-12-18T07:44:46;99876.25;;;3.24;65.06
60820;BME280;46641;48.904;9.126;2022-12-18T07:49:36;99869.47;;;3.21;65.05
60820;BME280;46641;48.904;9.126;2022-12-18T07:54:27;99878.94;;;3.22;65.53
60820;BME280;46641;48.904;9.126;2022-12-18T07:59:18;99873.75;;;3.22;65.12
60820;BME280;46641;48.904;9.126;2022-12-18T08:04:08;99872.84;;;3.23;65.39
60820;BME280;46641;48.904;9.126;2022-12-18T08:08:59;99883.19;;;3.23;65.15
60820;BME280;46641;48.904;9.126;2022-12-18T08:13:49;99886.59;;;3.24;65.47
60820;BME280;46641;48.904;9.126;2022-12-18T08:18:40;99890.81;;;3.26;64.82
60820;BME280;46641;48.904;9.126;2022-12-18T08:23:30;99888.28;;;3.25;65.59
60820;BME280;46641;48.904;9.126;2022-12-18T08:28:20;99893.44;;;3.25;65.52
60820;BME280;46641;48.904;9.126;2022-12-18T08:33:10;99883.19;;;3.23;65.88
60820;BME280;46641;48.904;9.126;2022-12-18T08:38:01;99890.03;;;3.24;65.66
60820;BME280;46641;48.904;9.126;2022-12-18T08:42:51;99886.59;;;3.24;65.74
60820;BME280;46641;48.904;9.126;2022-12-18T08:48:00;99886.59;;;3.24;65.28
60820;BME280;46641;48.904;9.126;2022-12-18T08:52:50;99891.78;;;3.24;65.91
60820;BME280;46641;48.904;9.126;2022-12-18T08:57:40;99876.13;;;3.27;65.94
60820;BME280;46641;48.904;9.126;2022-12-18T09:02:30;99867.53;;;3.26;65.17
60820;BME280;46641;48.904;9.126;2022-12-18T09:07:21;99858.94;;;3.26;65.46
60820;BME280;46641;48.904;9.126;2022-12-18T09:12:11;99864.09;;;3.26;65.70
60820;BME280;46641;48.904;9.126;2022-12-18T09:17:02;99869.19;;;3.27;65.70
60820;BME280;46641;48.904;9.126;2022-12-18T09:21:52;99861.44;;;3.27;65.13
60820;BME280;46641;48.904;9.126;2022-12-18T09:26:43;99855.38;;;3.28;65.84
60820;BME280;46641;48.904;9.126;2022-12-18T09:31:34;99846.63;;;3.31;65.34
60820;BME280;46641;48.904;9.126;2022-12-18T09:36:24;99856.00;;;3.34;64.72
60820;BME280;46641;48.904;9.126;2022-12-18T09:46:17;99846.34;;;3.37;65.37
60820;BME280;46641;48.904;9.126;2022-12-18T09:51:14;99845.47;;;3.38;65.10
60820;BME280;46641;48.904;9.126;2022-12-18T09:56:06;99849.72;;;3.39;65.70
60820;BME280;46641;48.904;9.126;2022-12-18T10:01:00;99852.31;;;3.39;65.59
60820;BME280;46641;48.904;9.126;2022-12-18T10:06:15;99846.28;;;3.39;64.87
60820;BME280;46641;48.904;9.126;2022-12-18T10:11:27;99852.22;;;3.41;65.54
60820;BME280;46641;48.904;9.126;2022-12-18T10:16:29;99858.97;;;3.45;65.11
60820;BME280;46641;48.904;9.126;2022-12-18T10:21:56;99859.78;;;3.45;65.13
60820;BME280;46641;48.904;9.126;2022-12-18T10:26:51;99865.66;;;3.49;65.03
60820;BME280;46641;48.904;9.126;2022-12-18T10:31:42;99862.25;;;3.48;66.06
60820;BME280;46641;48.904;9.126;2022-12-18T10:36:33;99856.97;;;3.50;65.86
60820;BME280;46641;48.904;9.126;2022-12-18T10:41:26;99868.03;;;3.54;65.84
60820;BME280;46641;48.904;9.126;2022-12-18T10:46:19;99850.00;;;3.52;65.09
60820;BME280;46641;48.904;9.126;2022-12-18T10:51:28;99854.25;;;3.53;65.76
60820;BME280;46641;48.904;9.126;2022-12-18T10:56:20;99843.84;;;3.55;65.91
60820;BME280;46641;48.904;9.126;2022-12-18T11:06:07;99852.22;;;3.60;65.45
60820;BME280;46641;48.904;9.126;2022-12-18T11:10:58;99847.75;;;3.63;65.97
60820;BME280;46641;48.904;9.126;2022-12-18T11:15:49;99838.16;;;3.65;65.65
60820;BME280;46641;48.904;9.126;2022-12-18T11:20:40;99824.25;;;3.68;65.63
60820;BME280;46641;48.904;9.126;2022-12-18T11:25:32;99813.81;;;3.69;65.56
60820;BME280;46641;48.904;9.126;2022-12-18T11:30:29;99814.59;;;3.71;65.85
60820;BME280;46641;48.904;9.126;2022-12-18T11:35:57;99817.09;;;3.73;65.21
60820;BME280;46641;48.904;9.126;2022-12-18T11:40:55;99816.81;;;3.79;65.60
60820;BME280;46641;48.904;9.126;2022-12-18T11:45:53;99805.63;;;3.79;64.87
60820;BME280;46641;48.904;9.126;2022-12-18T11:50:59;99807.28;;;3.80;65.61
60820;BME280;46641;48.904;9.126;2022-12-18T11:56:03;99798.47;;;3.84;65.27
60820;BME280;46641;48.904;9.126;2022-12-18T12:06:19;99783.50;;;3.90;65.40
60820;BME280;46641;48.904;9.126;2022-12-18T12:17:04;99773.81;;;3.94;65.76
60820;BME280;46641;48.904;9.126;2022-12-18T12:22:09;99770.00;;;4.01;65.01
60820;BME280;46641;48.904;9.126;2022-12-18T12:42:19;99771.22;;;4.11;65.59
60820;BME280;46641;48.904;9.126;2022-12-18T12:47:38;99777.94;;;4.15;65.14
60820;BME280;46641;48.904;9.126;2022-12-18T12:52:40;99791.50;;;4.20;65.32
60820;BME280;46641;48.904;9.126;2022-12-18T12:57:48;99793.19;;;4.21;65.07
60820;BME280;46641;48.904;9.126;2022-12-18T13:02:52;99784.34;;;4.26;65.68
60820;BME280;46641;48.904;9.126;2022-12-18T13:07:51;99788.97;;;4.19;63.09
60820;BME280;46641;48.904;9.126;2022-12-18T13:17:46;99779.16;;;3.91;64.17
60820;BME280;46641;48.904;9.126;2022-12-18T13:22:44;99780.13;;;4.06;64.56
60820;BME280;46641;48.904;9.126;2022-12-18T13:27:46;99776.25;;;4.14;64.21
60820;BME280;46641;48.904;9.126;2022-12-18T13:32:44;99766.44;;;4.21;65.06
60820;BME280;46641;48.904;9.126;2022-12-18T13:37:43;99764.47;;;4.26;65.14
60820;BME280;46641;48.904;9.126;2022-12-18T13:42:40;99756.59;;;4.28;65.55
60820;BME280;46641;48.904;9.126;2022-12-18T13:47:49;99754.78;;;4.30;65.52
60820;BME280;46641;48.904;9.126;2022-12-18T13:52:40;99746.75;;;4.34;65.81
60820;BME280;46641;48.904;9.126;2022-12-18T13:57:37;99743.09;;;4.38;65.55
60820;BME280;46641;48.904;9.126;2022-12-18T14:02:28;99744.69;;;4.41;65.57
60820;BME280;46641;48.904;9.126;2022-12-18T14:07:21;99749.81;;;4.42;65.42
60820;BME280;46641;48.904;9.126;2022-12-18T14:12:20;99762.53;;;4.47;65.04
60820;BME280;46641;48.904;9.126;2022-12-18T14:17:31;99751.34;;;4.47;65.79
60820;BME280;46641;48.904;9.126;2022-12-18T14:22:24;99760.63;;;4.51;66.18
60820;BME280;46641;48.904;9.126;2022-12-18T14:27:25;99763.53;;;4.10;66.43
60820;BME280;46641;48.904;9.126;2022-12-18T14:32:20;99765.00;;;4.33;65.21
60820;BME280;46641;48.904;9.126;2022-12-18T14:37:12;99755.75;;;4.44;65.33
60820;BME280;46641;48.904;9.126;2022-12-18T14:42:02;99748.50;;;4.51;65.41
60820;BME280;46641;48.904;9.126;2022-12-18T14:46:53;99762.13;;;4.55;65.13
60820;BME280;46641;48.904;9.126;2022-12-18T14:51:54;99762.06;;;4.56;65.33
60820;BME280;46641;48.904;9.126;2022-12-18T14:57:35;99757.72;;;4.57;65.73
60820;BME280;46641;48.904;9.126;2022-12-18T15:12:02;99743.88;;;4.23;64.23
60820;BME280;46641;48.904;9.126;2022-12-18T15:16:56;99750.97;;;4.37;64.38
60820;BME280;46641;48.904;9.126;2022-12-18T15:21:48;99746.16;;;4.47;65.12
60820;BME280;46641;48.904;9.126;2022-12-18T15:26:38;99737.38;;;4.49;65.31
60820;BME280;46641;48.904;9.126;2022-12-18T15:31:30;99727.75;;;4.51;65.46
60820;BME280;46641;48.904;9.126;2022-12-18T15:36:23;99741.47;;;4.53;65.62
60820;BME280;46641;48.904;9.126;2022-12-18T15:41:15;99739.72;;;4.54;65.47
60820;BME280;46641;48.904;9.126;2022-12-18T15:51:02;99751.03;;;4.18;64.58
60820;BME280;46641;48.904;9.126;2022-12-18T15:55:52;99746.91;;;4.31;64.99
60820;BME280;46641;48.904;9.126;2022-12-18T16:01:01;99745.00;;;4.35;65.19
60820;BME280;46641;48.904;9.126;2022-12-18T16:05:51;99742.25;;;4.38;65.25
60820;BME280;46641;48.904;9.126;2022-12-18T16:10:42;99749.81;;;4.42;65.34
60820;BME280;46641;48.904;9.126;2022-12-18T16:15:32;99745.38;;;4.44;65.90
60820;BME280;46641;48.904;9.126;2022-12-18T16:20:23;99739.34;;;4.44;65.82
60820;BME280;46641;48.904;9.126;2022-12-18T16:25:18;99740.13;;;4.46;65.84
60820;BME280;46641;48.904;9.126;2022-12-18T16:30:22;99733.97;;;4.49;66.22
60820;BME280;46641;48.904;9.126;2022-12-18T16:35:14;99736.47;;;4.50;65.94
60820;BME280;46641;48.904;9.126;2022-12-18T16:40:10;99726.91;;;4.51;66.09
60820;BME280;46641;48.904;9.126;2022-12-18T16:45:01;99736.38;;;4.52;66.31
60820;BME280;46641;48.904;9.126;2022-12-18T16:49:52;99741.47;;;4.53;66.37
60820;BME280;46641;48.904;9.126;2022-12-18T16:54:42;99728.59;;;4.52;66.50
60820;BME280;46641;48.904;9.126;2022-12-18T16:59:36;99734.63;;;4.52;66.25
60820;BME280;46641;48.904;9.126;2022-12-18T17:04:26;99733.72;;;4.53;66.57
60820;BME280;46641;48.904;9.126;2022-12-18T17:09:18;99731.94;;;4.54;66.53
60820;BME280;46641;48.904;9.126;2022-12-18T17:14:17;99724.25;;;4.52;66.55
60820;BME280;46641;48.904;9.126;2022-12-18T17:19:08;99714.72;;;4.53;66.74
60820;BME280;46641;48.904;9.126;2022-12-18T17:23:59;99703.53;;;4.52;66.90
60820;BME280;46641;48.904;9.126;2022-12-18T17:28:50;99693.00;;;4.55;66.63
60820;BME280;46641;48.904;9.126;2022-12-18T17:33:40;99700.00;;;4.53;66.54
60820;BME280;46641;48.904;9.126;2022-12-18T17:38:31;99704.19;;;4.56;66.46
60820;BME280;46641;48.904;9.126;2022-12-18T17:43:21;99705.03;;;4.56;66.58
60820;BME280;46641;48.904;9.126;2022-12-18T17:48:11;99718.91;;;4.55;66.76
60820;BME280;46641;48.904;9.126;2022-12-18T17:53:02;99711.88;;;4.57;66.49
60820;BME280;46641;48.904;9.126;2022-12-18T17:57:52;99705.97;;;4.55;66.65
60820;BME280;46641;48.904;9.126;2022-12-18T18:02:43;99705.97;;;4.55;66.69
60820;BME280;46641;48.904;9.126;2022-12-18T18:07:34;99695.59;;;4.55;66.61
60820;BME280;46641;48.904;9.126;2022-12-18T18:12:24;99697.25;;;4.56;66.61
60820;BME280;46641;48.904;9.126;2022-12-18T18:17:33;99695.50;;;4.57;66.87
60820;BME280;46641;48.904;9.126;2022-12-18T18:22:23;99691.09;;;4.59;66.44
60820;BME280;46641;48.904;9.126;2022-12-18T18:27:14;99684.13;;;4.59;66.45
60820;BME280;46641;48.904;9.126;2022-12-18T18:32:04;99681.44;;;4.61;66.48
60820;BME280;46641;48.904;9.126;2022-12-18T18:36:58;99675.53;;;4.59;66.66
60820;BME280;46641;48.904;9.126;2022-12-18T18:41:50;99681.53;;;4.59;66.68
60820;BME280;46641;48.904;9.126;2022-12-18T18:46:40;99672.09;;;4.58;66.69
60820;BME280;46641;48.904;9.126;2022-12-18T18:51:32;99675.44;;;4.60;66.53
60820;BME280;46641;48.904;9.126;2022-12-18T18:56:24;99671.16;;;4.59;66.78
60820;BME280;46641;48.904;9.126;2022-12-18T19:01:18;99685.81;;;4.60;66.94
60820;BME280;46641;48.904;9.126;2022-12-18T19:06:24;99681.38;;;4.62;66.67
60820;BME280;46641;48.904;9.126;2022-12-18T19:11:15;99669.31;;;4.61;66.37
60820;BME280;46641;48.904;9.126;2022-12-18T19:16:26;99669.31;;;4.61;66.52
60820;BME280;46641;48.904;9.126;2022-12-18T19:21:16;99655.63;;;4.59;66.57
60820;BME280;46641;48.904;9.126;2022-12-18T19:26:07;99647.84;;;4.59;66.82
60820;BME280;46641;48.904;9.126;2022-12-18T19:31:01;99641.72;;;4.60;67.00
60820;BME280;46641;48.904;9.126;2022-12-18T19:35:52;99637.31;;;4.62;66.55
60820;BME280;46641;48.904;9.126;2022-12-18T19:40:43;99627.00;;;4.61;66.88
60820;BME280;46641;48.904;9.126;2022-12-18T19:45:34;99621.00;;;4.60;66.81
60820;BME280;46641;48.904;9.126;2022-12-18T19:50:25;99617.47;;;4.61;66.67
60820;BME280;46641;48.904;9.126;2022-12-18T19:55:15;99613.97;;;4.62;66.51
60820;BME280;46641;48.904;9.126;2022-12-18T20:00:07;99614.88;;;4.61;66.86
60820;BME280;46641;48.904;9.126;2022-12-18T20:04:58;99611.38;;;4.62;66.50
60820;BME280;46641;48.904;9.126;2022-12-18T20:09:48;99616.56;;;4.62;66.90
60820;BME280;46641;48.904;9.126;2022-12-18T20:14:39;99607.88;;;4.63;66.46
60820;BME280;46641;48.904;9.126;2022-12-18T20:19:29;99592.31;;;4.63;66.99
60820;BME280;46641;48.904;9.126;2022-12-18T20:24:20;99580.09;;;4.65;67.25
60820;BME280;46641;48.904;9.126;2022-12-18T20:29:11;99574.91;;;4.65;66.68
60820;BME280;46641;48.904;9.126;2022-12-18T20:34:01;99584.38;;;4.66;66.40
60820;BME280;46641;48.904;9.126;2022-12-18T20:38:52;99575.66;;;4.67;66.74
60820;BME280;46641;48.904;9.126;2022-12-18T20:43:43;99586.03;;;4.67;66.49
60820;BME280;46641;48.904;9.126;2022-12-18T20:48:34;99588.63;;;4.67;67.14
60820;BME280;46641;48.904;9.126;2022-12-18T20:53:24;99588.44;;;4.71;66.33
60820;BME280;46641;48.904;9.126;2022-12-18T20:58:15;99591.16;;;4.69;66.59
60820;BME280;46641;48.904;9.126;2022-12-18T21:03:05;99568.63;;;4.69;66.50
60820;BME280;46641;48.904;9.126;2022-12-18T21:07:55;99565.28;;;4.67;66.63
60820;BME280;46641;48.904;9.126;2022-12-18T21:12:46;99576.59;;;4.66;66.89
60820;BME280;46641;48.904;9.126;2022-12-18T21:17:38;99597.00;;;4.73;66.52
60820;BME280;46641;48.904;9.126;2022-12-18T21:22:28;99585.78;;;4.72;66.60
60820;BME280;46641;48.904;9.126;2022-12-18T21:27:19;99569.22;;;4.75;66.78
60820;BME280;46641;48.904;9.126;2022-12-18T21:32:09;99579.59;;;4.75;67.09
60820;BME280;46641;48.904;9.126;2022-12-18T21:37:00;99593.41;;;4.75;66.99
60820;BME280;46641;48.904;9.126;2022-12-18T21:41:51;99605.53;;;4.75;66.83
60820;BME280;46641;48.904;9.126;2022-12-18T21:47:00;99582.19;;;4.75;66.67
60820;BME280;46641;48.904;9.126;2022-12-18T21:51:53;99554.41;;;4.77;66.83
60820;BME280;46641;48.904;9.126;2022-12-18T21:57:01;99570.13;;;4.74;66.61
60820;BME280;46641;48.904;9.126;2022-12-18T22:01:52;99570.91;;;4.76;66.51
60820;BME280;46641;48.904;9.126;2022-12-18T22:06:43;99564.88;;;4.75;67.10
60820;BME280;46641;48.904;9.126;2022-12-18T22:11:34;99553.50;;;4.78;67.12
60820;BME280;46641;48.904;9.126;2022-12-18T22:16:24;99548.31;;;4.78;66.95
60820;BME280;46641;48.904;9.126;2022-12-18T22:21:34;99556.09;;;4.78;66.46
60820;BME280;46641;48.904;9.126;2022-12-18T22:26:26;99567.22;;;4.80;66.70
60820;BME280;46641;48.904;9.126;2022-12-18T22:31:16;99563.78;;;4.79;66.73
60820;BME280;46641;48.904;9.126;2022-12-18T22:36:06;99566.22;;;4.82;66.64
60820;BME280;46641;48.904;9.126;2022-12-18T22:40:57;99548.13;;;4.81;66.86
60820;BME280;46641;48.904;9.126;2022-12-18T22:45:47;99556.75;;;4.81;66.76
60820;BME280;46641;48.904;9.126;2022-12-18T22:50:38;99563.88;;;4.78;66.99
60820;BME280;46641;48.904;9.126;2022-12-18T22:55:28;99568.88;;;4.81;66.66
60820;BME280;46641;48.904;9.126;2022-12-18T23:00:18;99560.19;;;4.82;67.30
60820;BME280;46641;48.904;9.126;2022-12-18T23:05:08;99570.41;;;4.85;66.82
60820;BME280;46641;48.904;9.126;2022-12-18T23:09:59;99572.06;;;4.86;66.57
60820;BME280;46641;48.904;9.126;2022-12-18T23:14:49;99570.22;;;4.88;66.63
60820;BME280;46641;48.904;9.126;2022-12-18T23:19:39;99568.47;;;4.88;66.85
60820;BME280;46641;48.904;9.126;2022-12-18T23:24:30;99555.50;;;4.88;66.73
60820;BME280;46641;48.904;9.126;2022-12-18T23:29:20;99562.44;;;4.88;66.68
60820;BME280;46641;48.904;9.126;2022-12-18T23:34:11;99565.88;;;4.88;66.90
60820;BME280;46641;48.904;9.126;2022-12-18T23:39:02;99558.91;;;4.89;66.91
60820;BME280;46641;48.904;9.126;2022-12-18T23:43:53;99560.69;;;4.88;66.70
60820;BME280;46641;48.904;9.126;2022-12-18T23:48:43;99562.34;;;4.89;66.76
60820;BME280;46641;48.904;9.126;2022-12-18T23:53:34;99576.91;;;4.92;66.73
60820;BME280;46641;48.904;9.126;2022-12-18T23:58:24;99588.94;;;4.93;66.44
